createdAt,value
2023-03-20T00:02:26.138Z,2.41
2023-03-20T00:04:54.252Z,2.37
2023-03-20T00:07:22.421Z,2.36
2023-03-20T00:09:51.025Z,2.33
2023-03-20T00:12:25.555Z,2.32
2023-03-20T00:14:53.879Z,2.33
2023-03-20T00:17:22.240Z,2.31
2023-03-20T00:19:50.769Z,2.31
2023-03-20T00:22:19.805Z,2.27
2023-03-20T00:24:48.582Z,2.23
2023-03-20T00:27:17.988Z,2.19
2023-03-20T00:29:46.120Z,2.15
2023-03-20T00:32:15.328Z,2.12
2023-03-20T00:34:43.478Z,2.09
2023-03-20T00:37:12.026Z,2.09
2023-03-20T00:39:41.760Z,2.10
2023-03-20T00:42:24.881Z,2.10
2023-03-20T00:44:56.129Z,2.12
2023-03-20T00:47:35.370Z,2.11
2023-03-20T00:50:16.057Z,2.10
2023-03-20T00:52:44.661Z,2.06
2023-03-20T00:55:13.715Z,2.02
2023-03-20T00:57:49.707Z,2.00
2023-03-20T01:00:25.749Z,1.99
2023-03-20T01:02:56.776Z,1.95
2023-03-20T01:05:27.720Z,1.93
2023-03-20T01:07:56.663Z,1.92
2023-03-20T01:10:30.110Z,1.93
2023-03-20T01:13:01.600Z,1.95
2023-03-20T01:15:34.631Z,1.98
2023-03-20T01:18:03.822Z,2.01
2023-03-20T01:20:32.391Z,2.05
2023-03-20T01:23:00.361Z,2.06
2023-03-20T01:25:28.908Z,2.06
2023-03-20T01:27:58.209Z,2.08
2023-03-20T01:30:31.531Z,2.09
2023-03-20T01:33:01.998Z,2.07
2023-03-20T01:35:31.091Z,2.07
2023-03-20T01:38:02.471Z,2.07
2023-03-20T01:40:41.685Z,2.07
2023-03-20T01:43:16.036Z,2.08
2023-03-20T01:46:20.166Z,2.13
2023-03-20T01:48:50.159Z,2.20
2023-03-20T01:51:30.951Z,2.25
2023-03-20T01:54:16.147Z,2.29
2023-03-20T01:57:08.654Z,2.32
2023-03-20T01:59:50.050Z,2.34
2023-03-20T02:02:23.998Z,2.33
2023-03-20T02:04:56.251Z,2.30
2023-03-20T02:07:24.747Z,2.25
2023-03-20T02:10:18.556Z,2.24
2023-03-20T02:12:54.561Z,2.21
2023-03-20T02:15:32.052Z,2.23
2023-03-20T02:18:15.439Z,2.26
2023-03-20T02:20:50.834Z,2.30
2023-03-20T02:23:37.337Z,2.34
2023-03-20T02:26:34.407Z,2.35
2023-03-20T02:29:09.545Z,2.38
2023-03-20T02:31:47.664Z,2.38
2023-03-20T02:34:34.305Z,2.35
2023-03-20T02:37:36.446Z,2.34
2023-03-20T02:40:44.122Z,2.34
2023-03-20T02:43:28.908Z,2.34
2023-03-20T02:46:08.021Z,2.35
2023-03-20T02:49:21.293Z,2.35
2023-03-20T02:52:00.363Z,2.37
2023-03-20T02:54:37.332Z,2.40
2023-03-20T02:57:11.899Z,2.49
2023-03-20T02:59:54.407Z,2.52
2023-03-20T03:02:26.295Z,2.55
2023-03-20T03:04:59.791Z,2.57
2023-03-20T03:07:33.515Z,2.55
2023-03-20T03:10:08.245Z,2.56
2023-03-20T03:12:41.238Z,2.55
2023-03-20T03:15:27.699Z,2.52
2023-03-20T03:17:58.392Z,2.48
2023-03-20T03:20:32.639Z,2.48
2023-03-20T03:23:02.147Z,2.48
2023-03-20T03:25:34.654Z,2.47
2023-03-20T03:28:05.824Z,2.44
2023-03-20T03:30:39.441Z,2.43
2023-03-20T03:33:23.549Z,2.42
2023-03-20T03:36:00.772Z,2.45
2023-03-20T03:39:07.937Z,2.48
2023-03-20T03:41:42.843Z,2.49
2023-03-20T03:44:33.915Z,2.51
2023-03-20T03:47:12.880Z,2.52
2023-03-20T03:49:48.123Z,2.54
2023-03-20T03:52:24.903Z,2.55
2023-03-20T03:54:59.947Z,2.56
2023-03-20T03:57:49.527Z,2.56
2023-03-20T04:00:23.703Z,2.53
2023-03-20T04:02:56.198Z,2.50
2023-03-20T04:05:31.572Z,2.47
2023-03-20T04:08:02.366Z,2.45
2023-03-20T04:10:30.363Z,2.44
2023-03-20T04:12:58.367Z,2.44
2023-03-20T04:15:27.924Z,2.45
2023-03-20T04:17:56.688Z,2.49
2023-03-20T04:20:24.950Z,2.51
2023-03-20T04:22:53.423Z,2.58
2023-03-20T04:25:26.038Z,2.62
2023-03-20T04:27:56.363Z,2.67
2023-03-20T04:30:39.931Z,2.71
2023-03-20T04:33:27.640Z,2.76
2023-03-20T04:36:21.604Z,2.78
2023-03-20T04:38:51.094Z,2.78
2023-03-20T04:41:21.211Z,2.78
2023-03-20T04:43:55.128Z,2.78
2023-03-20T04:46:24.895Z,2.77
2023-03-20T04:48:52.918Z,2.78
2023-03-20T04:51:41.289Z,2.80
2023-03-20T04:54:11.407Z,2.81
2023-03-20T04:56:40.606Z,2.82
2023-03-20T04:59:28.529Z,2.85
2023-03-20T05:01:57.693Z,2.89
2023-03-20T05:04:25.805Z,2.97
2023-03-20T05:06:53.976Z,3.04
2023-03-20T05:09:24.684Z,3.10
2023-03-20T05:11:53.942Z,3.16
2023-03-20T05:14:51.314Z,3.22
2023-03-20T05:17:37.154Z,3.24
2023-03-20T05:20:36.377Z,3.29
2023-03-20T05:23:08.041Z,3.29
2023-03-20T05:25:57.939Z,3.35
2023-03-20T05:28:44.261Z,3.40
2023-03-20T05:31:19.235Z,3.42
2023-03-20T05:33:57.453Z,3.44
2023-03-20T05:36:42.506Z,3.47
2023-03-20T05:39:25.481Z,3.49
2023-03-20T05:42:20.515Z,3.57
2023-03-20T05:45:07.166Z,3.66
2023-03-20T05:47:56.457Z,3.76
2023-03-20T05:50:43.973Z,3.84
2023-03-20T05:53:28.711Z,3.87
2023-03-20T05:56:17.239Z,3.98
2023-03-20T05:59:08.400Z,4.11
2023-03-20T06:02:05.935Z,4.23
2023-03-20T06:04:37.456Z,4.32
2023-03-20T06:07:20.137Z,4.37
2023-03-20T06:09:55.875Z,4.55
2023-03-20T06:12:24.405Z,4.63
2023-03-20T06:15:14.607Z,4.78
2023-03-20T06:17:46.107Z,4.91
2023-03-20T06:20:19.371Z,4.99
2023-03-20T06:22:49.989Z,5.13
2023-03-20T06:25:18.878Z,5.27
2023-03-20T06:27:48.762Z,5.40
2023-03-20T06:30:17.870Z,5.50
2023-03-20T06:32:48.296Z,5.57
2023-03-20T06:35:19.152Z,5.61
2023-03-20T06:37:58.232Z,5.56
2023-03-20T06:40:28.226Z,5.63
2023-03-20T06:42:58.577Z,5.75
2023-03-20T06:45:34.308Z,5.77
2023-03-20T06:48:11.286Z,5.86
2023-03-20T06:50:39.847Z,5.92
2023-03-20T06:53:08.332Z,5.97
2023-03-20T06:55:48.810Z,6.10
2023-03-20T06:58:17.283Z,6.07
2023-03-20T07:00:47.219Z,6.07
2023-03-20T07:03:17.046Z,6.14
2023-03-20T07:05:47.597Z,6.21
2023-03-20T07:08:16.067Z,6.32
2023-03-20T07:10:44.839Z,6.44
2023-03-20T07:13:14.546Z,6.65
2023-03-20T07:16:01.248Z,6.80
2023-03-20T07:18:34.527Z,6.98
2023-03-20T07:21:05.458Z,7.06
2023-03-20T07:23:34.858Z,7.13
2023-03-20T07:26:11.665Z,7.21
2023-03-20T07:28:43.312Z,7.26
2023-03-20T07:31:22.579Z,7.34
2023-03-20T07:33:54.858Z,7.36
2023-03-20T07:36:23.715Z,7.39
2023-03-20T07:38:51.751Z,7.56
2023-03-20T07:41:20.428Z,7.75
2023-03-20T07:43:57.940Z,7.94
2023-03-20T07:46:47.670Z,8.16
2023-03-20T07:49:20.585Z,8.25
2023-03-20T07:51:50.572Z,8.31
2023-03-20T07:54:22.868Z,8.42
2023-03-20T07:56:51.332Z,8.53
2023-03-20T07:59:22.788Z,8.53
2023-03-20T08:01:52.640Z,8.68
2023-03-20T08:04:22.674Z,8.88
2023-03-20T08:06:51.303Z,8.94
2023-03-20T08:09:19.946Z,9.13
2023-03-20T08:11:48.429Z,9.32
2023-03-20T08:14:17.241Z,9.46
2023-03-20T08:16:45.476Z,9.65
2023-03-20T08:19:13.684Z,9.82
2023-03-20T08:21:41.769Z,9.85
2023-03-20T08:24:10.475Z,9.98
2023-03-20T08:26:38.734Z,10.06
2023-03-20T08:29:07.289Z,10.21
2023-03-20T08:31:35.838Z,10.29
2023-03-20T08:34:06.976Z,10.57
2023-03-20T08:36:35.236Z,10.73
2023-03-20T08:39:03.431Z,10.83
2023-03-20T08:41:31.679Z,11.07
2023-03-20T08:44:00.110Z,11.23
2023-03-20T08:46:28.547Z,11.30
2023-03-20T08:49:11.158Z,11.50
2023-03-20T08:51:49.736Z,11.51
2023-03-20T08:54:19.325Z,11.68
2023-03-20T08:56:47.667Z,11.93
2023-03-20T08:59:15.877Z,12.16
2023-03-20T09:01:49.696Z,12.24
2023-03-20T09:04:18.988Z,12.39
2023-03-20T09:06:48.546Z,12.39
2023-03-20T09:09:18.700Z,12.49
2023-03-20T09:11:47.577Z,12.64
2023-03-20T09:14:16.899Z,12.59
2023-03-20T09:16:45.772Z,12.60
2023-03-20T09:19:16.590Z,12.71
2023-03-20T09:21:45.500Z,12.70
2023-03-20T09:24:16.706Z,12.98
2023-03-20T09:26:44.884Z,13.10
2023-03-20T09:29:12.978Z,13.14
2023-03-20T09:31:41.340Z,13.28
2023-03-20T09:34:09.546Z,13.26
2023-03-20T09:36:38.356Z,13.27
2023-03-20T09:39:06.440Z,13.53
2023-03-20T09:41:55.684Z,13.67
2023-03-20T09:44:27.895Z,13.80
2023-03-20T09:48:01.061Z,14.00
2023-03-20T09:50:52.831Z,14.08
2023-03-20T09:53:27.463Z,14.16
2023-03-20T09:55:57.287Z,14.46
2023-03-20T09:58:34.405Z,14.65
2023-03-20T10:01:06.722Z,14.82
2023-03-20T10:03:52.121Z,14.89
2023-03-20T10:06:20.279Z,15.09
2023-03-20T10:08:48.640Z,15.28
2023-03-20T10:11:23.721Z,15.51
2023-03-20T10:14:11.582Z,15.76
2023-03-20T10:16:55.751Z,15.87
2023-03-20T10:19:31.589Z,15.95
2023-03-20T10:22:31.419Z,16.17
2023-03-20T10:25:24.110Z,16.42
2023-03-20T10:27:59.319Z,16.31
2023-03-20T10:31:22.178Z,16.31
2023-03-20T10:34:02.131Z,16.57
2023-03-20T10:36:48.782Z,16.69
2023-03-20T10:39:53.258Z,16.74
2023-03-20T10:42:28.891Z,17.12
2023-03-20T10:45:07.251Z,17.17
2023-03-20T10:47:41.036Z,17.19
2023-03-20T10:50:18.221Z,17.31
2023-03-20T10:52:51.809Z,17.40
2023-03-20T10:55:29.338Z,17.52
2023-03-20T10:58:09.282Z,17.39
2023-03-20T11:00:38.368Z,17.57
2023-03-20T11:03:11.212Z,17.83
2023-03-20T11:05:41.896Z,17.91
2023-03-20T11:08:16.013Z,17.96
2023-03-20T11:10:45.097Z,17.60
2023-03-20T11:13:17.262Z,17.40
2023-03-20T11:15:46.325Z,18.02
2023-03-20T11:18:15.876Z,17.93
2023-03-20T11:20:52.726Z,17.67
2023-03-20T11:23:26.047Z,18.10
2023-03-20T11:25:59.597Z,18.04
2023-03-20T11:28:36.426Z,18.01
2023-03-20T11:31:13.838Z,17.96
2023-03-20T11:33:52.289Z,18.10
2023-03-20T11:36:28.283Z,18.35
2023-03-20T11:39:14.305Z,18.34
2023-03-20T11:41:47.639Z,18.63
2023-03-20T11:44:27.869Z,18.69
2023-03-20T11:46:59.736Z,18.84
2023-03-20T11:49:30.244Z,18.88
2023-03-20T11:52:11.866Z,18.85
2023-03-20T11:54:48.389Z,19.09
2023-03-20T11:57:39.373Z,19.20
2023-03-20T12:00:12.209Z,19.64
2023-03-20T12:02:42.321Z,19.55
2023-03-20T12:05:32.656Z,20.02
2023-03-20T12:08:03.229Z,19.97
2023-03-20T12:10:41.263Z,20.03
2023-03-20T12:13:18.065Z,19.82
2023-03-20T12:15:54.397Z,20.58
2023-03-20T12:18:37.294Z,20.81
2023-03-20T12:21:24.867Z,20.72
2023-03-20T12:24:05.176Z,20.75
2023-03-20T12:26:46.634Z,20.65
2023-03-20T12:29:21.739Z,20.99
2023-03-20T12:31:54.204Z,20.52
2023-03-20T12:34:32.238Z,20.87
2023-03-20T12:37:01.517Z,21.01
2023-03-20T12:39:41.548Z,20.76
2023-03-20T12:42:37.472Z,20.77
2023-03-20T12:45:27.580Z,20.60
2023-03-20T12:48:02.432Z,20.56
2023-03-20T12:50:39.977Z,21.46
2023-03-20T12:53:27.259Z,21.81
2023-03-20T12:56:01.527Z,21.82
2023-03-20T12:59:08.563Z,22.26
2023-03-20T13:01:55.740Z,22.07
2023-03-20T13:04:51.963Z,22.52
2023-03-20T13:07:41.671Z,22.36
2023-03-20T13:10:21.185Z,21.95
2023-03-20T13:13:14.159Z,22.32
2023-03-20T13:15:52.692Z,22.75
2023-03-20T13:18:25.986Z,23.15
2023-03-20T13:21:03.210Z,23.76
2023-03-20T13:23:46.944Z,24.33
2023-03-20T13:26:33.803Z,24.29
2023-03-20T13:29:28.972Z,24.37
2023-03-20T13:32:16.809Z,24.20
2023-03-20T13:35:09.444Z,23.98
2023-03-20T13:37:56.579Z,24.24
2023-03-20T13:40:35.890Z,24.74
2023-03-20T13:43:19.946Z,25.40
2023-03-20T13:45:57.139Z,25.17
2023-03-20T13:48:34.481Z,25.00
2023-03-20T13:51:26.203Z,25.68
2023-03-20T13:54:12.720Z,25.85
2023-03-20T13:56:47.884Z,25.88
2023-03-20T13:59:20.367Z,25.57
2023-03-20T14:02:14.316Z,25.60
2023-03-20T14:04:44.230Z,24.81
2023-03-20T14:07:37.028Z,24.95
2023-03-20T14:10:25.313Z,25.04
2023-03-20T14:12:59.611Z,24.56
2023-03-20T14:15:33.336Z,24.61
2023-03-20T14:18:07.394Z,23.51
2023-03-20T14:20:43.466Z,23.64
2023-03-20T14:23:19.169Z,23.74
2023-03-20T14:26:00.382Z,23.87
2023-03-20T14:28:51.126Z,24.11
2023-03-20T14:31:39.988Z,24.47
2023-03-20T14:34:13.947Z,24.15
2023-03-20T14:37:23.561Z,24.16
2023-03-20T14:40:25.641Z,24.15
2023-03-20T14:43:14.317Z,23.98
2023-03-20T14:45:52.321Z,23.50
2023-03-20T14:48:46.236Z,22.66
2023-03-20T14:51:20.528Z,21.92
2023-03-20T14:54:19.581Z,20.86
2023-03-20T14:56:52.179Z,20.50
2023-03-20T14:59:22.746Z,20.32
2023-03-20T15:01:57.867Z,20.17
2023-03-20T15:04:34.930Z,19.94
2023-03-20T15:07:05.146Z,19.85
2023-03-20T15:09:37.734Z,19.74
2023-03-20T15:12:08.902Z,19.46
2023-03-20T15:14:47.537Z,19.42
2023-03-20T15:17:23.509Z,19.17
2023-03-20T15:20:20.946Z,19.08
2023-03-20T15:22:58.002Z,18.81
2023-03-20T15:25:47.284Z,18.63
2023-03-20T15:28:26.772Z,18.32
2023-03-20T15:30:59.733Z,18.05
2023-03-20T15:33:42.742Z,17.79
2023-03-20T15:36:17.361Z,17.76
2023-03-20T15:38:47.489Z,17.66
2023-03-20T15:41:33.949Z,17.57
2023-03-20T15:44:15.019Z,17.46
2023-03-20T15:46:55.061Z,17.31
2023-03-20T15:49:24.169Z,17.20
2023-03-20T15:51:54.686Z,17.11
2023-03-20T15:54:23.238Z,16.95
2023-03-20T15:56:53.210Z,16.76
2023-03-20T15:59:24.949Z,16.67
2023-03-20T16:01:58.036Z,16.58
2023-03-20T16:04:27.443Z,16.45
2023-03-20T16:06:59.299Z,16.24
2023-03-20T16:09:28.921Z,16.10
2023-03-20T16:11:58.834Z,15.93
2023-03-20T16:14:33.719Z,15.83
2023-03-20T16:17:05.846Z,15.77
2023-03-20T16:19:37.982Z,15.65
2023-03-20T16:22:19.041Z,15.50
2023-03-20T16:24:53.296Z,15.42
2023-03-20T16:27:32.681Z,15.31
2023-03-20T16:30:06.327Z,15.21
2023-03-20T16:32:38.444Z,15.09
2023-03-20T16:35:22.282Z,15.02
2023-03-20T16:38:00.045Z,14.88
2023-03-20T16:40:32.011Z,14.77
2023-03-20T16:43:18.415Z,14.65
2023-03-20T16:45:52.899Z,14.55
2023-03-20T16:48:23.718Z,14.51
2023-03-20T16:50:59.088Z,14.41
2023-03-20T16:53:31.850Z,14.33
2023-03-20T16:56:06.420Z,14.28
2023-03-20T16:58:35.518Z,14.24
2023-03-20T17:01:06.490Z,14.15
2023-03-20T17:03:48.216Z,14.09
2023-03-20T17:06:19.830Z,14.03
2023-03-20T17:09:08.217Z,14.01
2023-03-20T17:11:44.605Z,13.98
2023-03-20T17:14:12.624Z,13.92
2023-03-20T17:16:40.887Z,13.88
2023-03-20T17:19:21.031Z,13.86
2023-03-20T17:21:50.084Z,13.81
2023-03-20T17:24:18.529Z,13.77
2023-03-20T17:26:55.915Z,13.76
2023-03-20T17:29:24.038Z,13.74
2023-03-20T17:31:52.791Z,13.72
2023-03-20T17:34:21.883Z,13.70
2023-03-20T17:36:51.332Z,13.69
2023-03-20T17:39:21.666Z,13.67
2023-03-20T17:41:49.808Z,13.64
2023-03-20T17:44:20.040Z,13.59
2023-03-20T17:46:57.954Z,13.55
2023-03-20T17:49:27.872Z,13.51
2023-03-20T17:51:56.455Z,13.49
2023-03-20T17:54:24.798Z,13.46
2023-03-20T17:56:52.848Z,13.43
2023-03-20T17:59:20.903Z,13.42
2023-03-20T18:01:49.063Z,13.40
2023-03-20T18:04:19.826Z,13.40
2023-03-20T18:06:49.114Z,13.37
2023-03-20T18:09:18.384Z,13.34
2023-03-20T18:11:46.821Z,13.31
2023-03-20T18:14:18.184Z,13.28
2023-03-20T18:16:46.796Z,13.25
2023-03-20T18:19:26.579Z,13.22
2023-03-20T18:21:57.167Z,13.16
2023-03-20T18:24:26.327Z,13.11
2023-03-20T18:26:55.191Z,13.08
2023-03-20T18:29:23.370Z,13.06
2023-03-20T18:31:51.667Z,13.04
2023-03-20T18:34:21.502Z,13.02
2023-03-20T18:36:51.253Z,12.99
2023-03-20T18:39:22.992Z,12.97
2023-03-20T18:41:52.528Z,12.94
2023-03-20T18:44:20.807Z,12.91
2023-03-20T18:46:49.426Z,12.88
2023-03-20T18:49:18.503Z,12.84
2023-03-20T18:51:47.605Z,12.82
2023-03-20T18:54:15.869Z,12.81
2023-03-20T18:56:47.239Z,12.79
2023-03-20T18:59:16.957Z,12.78
2023-03-20T19:01:46.895Z,12.78
2023-03-20T19:04:14.971Z,12.76
2023-03-20T19:06:42.971Z,12.75
2023-03-20T19:09:12.306Z,12.74
2023-03-20T19:11:41.489Z,12.74
2023-03-20T19:14:09.636Z,12.72
2023-03-20T19:16:41.522Z,12.70
2023-03-20T19:19:14.004Z,12.71
2023-03-20T19:21:42.564Z,12.67
2023-03-20T19:24:13.803Z,12.63
2023-03-20T19:26:42.249Z,12.60
2023-03-20T19:29:11.694Z,12.55
2023-03-20T19:31:40.075Z,12.54
2023-03-20T19:34:08.183Z,12.51
2023-03-20T19:36:42.562Z,12.48
2023-03-20T19:39:14.091Z,12.47
2023-03-20T19:41:42.371Z,12.46
2023-03-20T19:44:10.451Z,12.43
2023-03-20T19:46:40.784Z,12.40
2023-03-20T19:49:30.093Z,12.36
2023-03-20T19:51:59.166Z,12.33
2023-03-20T19:54:28.648Z,12.27
2023-03-20T19:56:57.465Z,12.22
2023-03-20T19:59:26.094Z,12.17
2023-03-20T20:01:54.786Z,12.13
2023-03-20T20:04:23.137Z,12.08
2023-03-20T20:06:55.347Z,12.04
2023-03-20T20:09:27.285Z,12.01
2023-03-20T20:11:57.941Z,11.97
2023-03-20T20:14:26.080Z,11.91
2023-03-20T20:16:54.672Z,11.88
2023-03-20T20:19:22.950Z,11.85
2023-03-20T20:24:39.411Z,11.78
2023-03-20T20:27:18.639Z,11.76
2023-03-20T20:29:51.780Z,11.74
2023-03-20T20:32:23.612Z,11.70
2023-03-20T20:38:27.071Z,11.66
2023-03-20T20:40:31.529Z,11.61
2023-03-20T20:43:02.152Z,11.57
2023-03-20T20:45:32.347Z,11.54
2023-03-20T20:48:02.270Z,11.47
2023-03-20T20:50:32.256Z,11.44
2023-03-20T20:53:00.917Z,11.41
2023-03-20T20:55:29.613Z,11.36
2023-03-20T20:57:58.955Z,11.32
2023-03-20T21:00:45.398Z,11.27
2023-03-20T21:03:15.952Z,11.23
2023-03-20T21:05:44.072Z,11.19
2023-03-20T21:08:14.424Z,11.12
2023-03-20T21:10:45.914Z,11.07
2023-03-20T21:13:15.911Z,11.05
2023-03-20T21:15:45.678Z,11.02
2023-03-20T21:18:14.338Z,10.99
2023-03-20T21:20:42.719Z,10.96
2023-03-20T21:23:11.875Z,10.92
2023-03-20T21:25:42.069Z,10.88
2023-03-20T21:28:11.815Z,10.83
2023-03-20T21:30:54.590Z,10.80
2023-03-20T21:33:36.885Z,10.77
2023-03-20T21:36:06.453Z,10.77
2023-03-20T21:39:05.841Z,10.75
2023-03-20T21:41:27.535Z,10.74
2023-03-20T21:43:56.098Z,10.72
2023-03-20T21:58:17.549Z,10.53
2023-03-20T22:03:33.674Z,10.43
2023-03-20T22:06:59.194Z,10.42
2023-03-20T22:09:45.790Z,10.39
2023-03-20T22:12:33.501Z,10.38
2023-03-20T22:21:06.212Z,10.34
2023-03-20T22:32:35.241Z,10.23
2023-03-20T22:35:30.823Z,10.21
2023-03-20T22:41:00.741Z,10.17
2023-03-20T22:44:07.820Z,10.15
2023-03-20T22:46:10.192Z,10.11
2023-03-20T22:48:44.119Z,10.08
2023-03-20T22:51:13.770Z,10.05
2023-03-20T22:53:43.342Z,10.02
2023-03-20T22:56:13.748Z,9.98
2023-03-20T22:58:43.463Z,9.94
2023-03-20T23:01:12.685Z,9.91
2023-03-20T23:03:42.384Z,9.89
2023-03-20T23:06:21.020Z,9.89
2023-03-20T23:08:55.253Z,9.89
2023-03-20T23:11:27.996Z,9.89
2023-03-20T23:13:56.464Z,9.88
2023-03-20T23:16:27.404Z,9.88
2023-03-20T23:18:55.767Z,9.85
2023-03-20T23:21:24.486Z,9.85
2023-03-20T23:23:57.116Z,9.80
2023-03-20T23:26:25.222Z,9.78
2023-03-20T23:28:53.542Z,9.76
2023-03-20T23:31:25.482Z,9.74
2023-03-20T23:33:56.537Z,9.73
2023-03-20T23:36:36.486Z,9.72
2023-03-20T23:39:11.371Z,9.72
2023-03-20T23:44:28.473Z,9.69
2023-03-20T23:46:57.777Z,9.66
2023-03-20T23:49:26.813Z,9.60
2023-03-20T23:51:55.196Z,9.60
2023-03-20T23:54:24.124Z,9.57
2023-03-20T23:56:52.772Z,9.53
2023-03-20T23:59:22.485Z,9.49
